sensor_id;sensor_type;location;lat;lon;timestamp;pressure;altitude;pressure_sealevel;temperature;humidity
48874;BME280;35220;46.204;5.220;2022-08-19T00:02:13;98508.34;;;18.76;80.46
48874;BME280;35220;46.204;5.220;2022-08-19T00:07:14;98506.69;;;18.80;79.64
48874;BME280;35220;46.204;5.220;2022-08-19T00:12:14;98508.34;;;18.76;79.89
48874;BME280;35220;46.204;5.220;2022-08-19T00:17:15;98511.00;;;18.67;80.27
48874;BME280;35220;46.204;5.220;2022-08-19T00:22:15;98505.06;;;18.70;80.44
48874;BME280;35220;46.204;5.220;2022-08-19T00:27:17;98508.03;;;18.69;80.28
48874;BME280;35220;46.204;5.220;2022-08-19T00:32:18;98517.38;;;18.75;80.33
48874;BME280;35220;46.204;5.220;2022-08-19T00:37:22;98531.72;;;18.60;82.15
48874;BME280;35220;46.204;5.220;2022-08-19T00:42:23;98520.81;;;18.53;81.96
48874;BME280;35220;46.204;5.220;2022-08-19T00:47:23;98526.44;;;18.51;81.71
48874;BME280;35220;46.204;5.220;2022-08-19T00:52:27;98528.28;;;18.51;81.23
48874;BME280;35220;46.204;5.220;2022-08-19T00:57:35;98535.75;;;18.57;81.30
48874;BME280;35220;46.204;5.220;2022-08-19T01:02:38;98525.81;;;18.54;80.74
48874;BME280;35220;46.204;5.220;2022-08-19T01:07:39;98505.50;;;18.55;80.34
48874;BME280;35220;46.204;5.220;2022-08-19T01:12:41;98521.72;;;18.71;79.90
48874;BME280;35220;46.204;5.220;2022-08-19T01:17:42;98512.53;;;18.68;80.74
48874;BME280;35220;46.204;5.220;2022-08-19T01:22:50;98504.09;;;18.57;81.75
48874;BME280;35220;46.204;5.220;2022-08-19T01:27:51;98519.16;;;18.57;80.73
48874;BME280;35220;46.204;5.220;2022-08-19T01:32:53;98507.59;;;18.75;80.14
48874;BME280;35220;46.204;5.220;2022-08-19T01:37:59;98502.41;;;18.93;79.86
48874;BME280;35220;46.204;5.220;2022-08-19T01:43:01;98509.44;;;19.06;78.71
48874;BME280;35220;46.204;5.220;2022-08-19T01:48:03;98497.16;;;19.02;78.82
48874;BME280;35220;46.204;5.220;2022-08-19T01:53:06;98501.16;;;18.99;79.00
48874;BME280;35220;46.204;5.220;2022-08-19T01:58:11;98493.88;;;18.96;79.00
48874;BME280;35220;46.204;5.220;2022-08-19T02:03:12;98505.69;;;18.98;78.73
48874;BME280;35220;46.204;5.220;2022-08-19T02:08:13;98513.31;;;19.09;78.50
48874;BME280;35220;46.204;5.220;2022-08-19T02:13:13;98505.59;;;19.21;77.86
48874;BME280;35220;46.204;5.220;2022-08-19T02:18:14;98509.34;;;19.37;77.43
48874;BME280;35220;46.204;5.220;2022-08-19T02:23:16;98510.28;;;19.42;77.47
48874;BME280;35220;46.204;5.220;2022-08-19T02:28:16;98519.78;;;19.51;76.99
48874;BME280;35220;46.204;5.220;2022-08-19T02:33:17;98521.34;;;19.61;76.83
48874;BME280;35220;46.204;5.220;2022-08-19T02:38:17;98526.47;;;19.66;76.67
48874;BME280;35220;46.204;5.220;2022-08-19T02:43:28;98524.78;;;19.70;76.92
48874;BME280;35220;46.204;5.220;2022-08-19T02:48:29;98528.53;;;19.78;76.62
48874;BME280;35220;46.204;5.220;2022-08-19T02:53:32;98521.22;;;19.75;76.71
48874;BME280;35220;46.204;5.220;2022-08-19T02:58:33;98526.34;;;19.80;76.77
48874;BME280;35220;46.204;5.220;2022-08-19T03:03:33;98521.22;;;19.84;76.49
48874;BME280;35220;46.204;5.220;2022-08-19T03:08:34;98510.97;;;19.82;76.09
48874;BME280;35220;46.204;5.220;2022-08-19T03:13:34;98517.03;;;19.74;76.25
48874;BME280;35220;46.204;5.220;2022-08-19T03:18:36;98528.97;;;19.63;76.30
48874;BME280;35220;46.204;5.220;2022-08-19T03:23:36;98530.50;;;19.55;76.41
48874;BME280;35220;46.204;5.220;2022-08-19T03:28:37;98530.97;;;19.48;76.53
48874;BME280;35220;46.204;5.220;2022-08-19T03:33:38;98534.56;;;19.52;76.44
48874;BME280;35220;46.204;5.220;2022-08-19T03:38:41;98539.69;;;19.57;76.03
48874;BME280;35220;46.204;5.220;2022-08-19T03:43:42;98542.97;;;19.54;76.04
48874;BME280;35220;46.204;5.220;2022-08-19T03:48:43;98536.84;;;19.45;76.18
48874;BME280;35220;46.204;5.220;2022-08-19T03:53:44;98547.13;;;19.47;76.41
48874;BME280;35220;46.204;5.220;2022-08-19T03:58:45;98549.00;;;19.46;76.36
48874;BME280;35220;46.204;5.220;2022-08-19T04:03:46;98561.59;;;19.49;76.27
48874;BME280;35220;46.204;5.220;2022-08-19T04:08:49;98570.56;;;19.40;76.62
48874;BME280;35220;46.204;5.220;2022-08-19T04:13:52;98574.63;;;19.37;76.71
48874;BME280;35220;46.204;5.220;2022-08-19T04:18:52;98577.84;;;19.25;76.96
48874;BME280;35220;46.204;5.220;2022-08-19T04:23:54;98588.25;;;19.22;77.13
48874;BME280;35220;46.204;5.220;2022-08-19T04:28:55;98594.75;;;19.15;77.34
48874;BME280;35220;46.204;5.220;2022-08-19T04:33:57;98599.25;;;19.15;77.55
48874;BME280;35220;46.204;5.220;2022-08-19T04:39:01;98619.56;;;19.06;78.54
48874;BME280;35220;46.204;5.220;2022-08-19T04:44:01;98619.38;;;19.02;78.57
48874;BME280;35220;46.204;5.220;2022-08-19T04:49:03;98615.19;;;19.01;78.81
48874;BME280;35220;46.204;5.220;2022-08-19T04:54:05;98615.63;;;18.94;78.93
48874;BME280;35220;46.204;5.220;2022-08-19T04:59:05;98606.81;;;19.08;78.07
48874;BME280;35220;46.204;5.220;2022-08-19T05:04:06;98603.31;;;19.21;77.55
48874;BME280;35220;46.204;5.220;2022-08-19T05:09:06;98613.69;;;19.09;78.30
48874;BME280;35220;46.204;5.220;2022-08-19T05:14:08;98624.31;;;18.95;79.12
48874;BME280;35220;46.204;5.220;2022-08-19T05:19:08;98637.06;;;18.93;79.28
48874;BME280;35220;46.204;5.220;2022-08-19T05:24:28;98662.03;;;18.87;79.53
48874;BME280;35220;46.204;5.220;2022-08-19T05:29:29;98660.16;;;18.87;79.69
48874;BME280;35220;46.204;5.220;2022-08-19T05:34:31;98661.41;;;18.90;79.49
48874;BME280;35220;46.204;5.220;2022-08-19T05:39:35;98658.50;;;19.00;79.29
48874;BME280;35220;46.204;5.220;2022-08-19T05:44:39;98659.13;;;18.97;80.18
48874;BME280;35220;46.204;5.220;2022-08-19T05:49:41;98665.78;;;18.94;80.00
48874;BME280;35220;46.204;5.220;2022-08-19T05:54:42;98659.00;;;19.02;79.29
48874;BME280;35220;46.204;5.220;2022-08-19T05:59:42;98660.91;;;19.10;79.06
48874;BME280;35220;46.204;5.220;2022-08-19T06:04:45;98655.31;;;19.12;79.02
48874;BME280;35220;46.204;5.220;2022-08-19T06:09:46;98658.25;;;19.10;79.03
48874;BME280;35220;46.204;5.220;2022-08-19T06:14:46;98659.97;;;19.15;79.08
48874;BME280;35220;46.204;5.220;2022-08-19T06:19:47;98671.03;;;19.17;79.07
48874;BME280;35220;46.204;5.220;2022-08-19T06:24:47;98683.44;;;19.16;79.36
48874;BME280;35220;46.204;5.220;2022-08-19T06:29:48;98688.31;;;19.23;79.11
48874;BME280;35220;46.204;5.220;2022-08-19T06:34:48;98694.84;;;19.26;79.15
48874;BME280;35220;46.204;5.220;2022-08-19T06:39:50;98693.94;;;19.30;79.06
48874;BME280;35220;46.204;5.220;2022-08-19T06:44:50;98696.03;;;19.42;78.68
48874;BME280;35220;46.204;5.220;2022-08-19T06:49:54;98696.97;;;19.46;78.50
48874;BME280;35220;46.204;5.220;2022-08-19T06:55:00;98703.69;;;19.61;77.76
48874;BME280;35220;46.204;5.220;2022-08-19T07:00:01;98708.69;;;19.63;77.96
48874;BME280;35220;46.204;5.220;2022-08-19T07:05:01;98722.72;;;19.72;77.76
48874;BME280;35220;46.204;5.220;2022-08-19T07:10:04;98737.91;;;19.66;77.93
48874;BME280;35220;46.204;5.220;2022-08-19T07:15:06;98739.28;;;19.55;78.17
48874;BME280;35220;46.204;5.220;2022-08-19T07:20:09;98745.47;;;19.50;78.36
48874;BME280;35220;46.204;5.220;2022-08-19T07:25:10;98753.56;;;19.54;77.99
48874;BME280;35220;46.204;5.220;2022-08-19T07:30:13;98750.16;;;19.53;77.98
48874;BME280;35220;46.204;5.220;2022-08-19T07:35:13;98767.22;;;19.47;78.13
48874;BME280;35220;46.204;5.220;2022-08-19T07:40:14;98767.28;;;19.56;77.84
48874;BME280;35220;46.204;5.220;2022-08-19T07:45:15;98768.75;;;19.71;77.46
48874;BME280;35220;46.204;5.220;2022-08-19T07:50:18;98769.34;;;19.99;76.92
48874;BME280;35220;46.204;5.220;2022-08-19T07:55:22;98769.88;;;20.19;76.51
48874;BME280;35220;46.204;5.220;2022-08-19T08:00:23;98782.94;;;20.24;76.21
48874;BME280;35220;46.204;5.220;2022-08-19T08:05:24;98779.38;;;20.28;76.28
48874;BME280;35220;46.204;5.220;2022-08-19T08:10:43;98787.47;;;20.41;76.15
48874;BME280;35220;46.204;5.220;2022-08-19T08:15:43;98780.47;;;20.27;76.24
48874;BME280;35220;46.204;5.220;2022-08-19T08:20:44;98788.53;;;20.22;76.60
48874;BME280;35220;46.204;5.220;2022-08-19T08:25:45;98790.28;;;20.36;76.42
48874;BME280;35220;46.204;5.220;2022-08-19T08:30:47;98786.25;;;20.47;76.21
48874;BME280;35220;46.204;5.220;2022-08-19T08:35:48;98786.59;;;20.54;76.11
48874;BME280;35220;46.204;5.220;2022-08-19T08:40:52;98790.31;;;20.53;75.31
48874;BME280;35220;46.204;5.220;2022-08-19T08:46:13;98797.69;;;20.65;74.82
48874;BME280;35220;46.204;5.220;2022-08-19T08:51:21;98791.28;;;20.75;74.95
48874;BME280;35220;46.204;5.220;2022-08-19T08:56:23;98816.50;;;20.63;75.39
48874;BME280;35220;46.204;5.220;2022-08-19T09:01:24;98814.41;;;20.43;74.87
48874;BME280;35220;46.204;5.220;2022-08-19T09:16:47;98831.00;;;20.66;73.58
48874;BME280;35220;46.204;5.220;2022-08-19T09:21:49;98839.38;;;20.59;72.93
48874;BME280;35220;46.204;5.220;2022-08-19T09:26:50;98830.31;;;20.51;74.09
48874;BME280;35220;46.204;5.220;2022-08-19T09:31:51;98831.41;;;20.42;73.67
48874;BME280;35220;46.204;5.220;2022-08-19T09:36:51;98851.63;;;20.38;73.97
48874;BME280;35220;46.204;5.220;2022-08-19T09:41:53;98854.25;;;20.29;74.08
48874;BME280;35220;46.204;5.220;2022-08-19T09:46:53;98866.16;;;20.18;74.64
48874;BME280;35220;46.204;5.220;2022-08-19T09:51:54;98863.91;;;19.93;74.49
48874;BME280;35220;46.204;5.220;2022-08-19T09:56:58;98865.34;;;19.77;74.77
48874;BME280;35220;46.204;5.220;2022-08-19T10:02:00;98864.38;;;19.73;75.36
48874;BME280;35220;46.204;5.220;2022-08-19T10:07:01;98871.66;;;19.67;75.58
48874;BME280;35220;46.204;5.220;2022-08-19T10:12:03;98876.81;;;19.50;75.52
48874;BME280;35220;46.204;5.220;2022-08-19T10:17:04;98881.19;;;19.32;75.93
48874;BME280;35220;46.204;5.220;2022-08-19T10:22:05;98879.56;;;19.22;76.46
48874;BME280;35220;46.204;5.220;2022-08-19T10:27:06;98876.72;;;19.18;76.85
48874;BME280;35220;46.204;5.220;2022-08-19T10:32:08;98869.59;;;19.19;76.53
48874;BME280;35220;46.204;5.220;2022-08-19T10:37:08;98878.97;;;19.25;76.33
48874;BME280;35220;46.204;5.220;2022-08-19T10:42:09;98877.09;;;19.26;76.68
48874;BME280;35220;46.204;5.220;2022-08-19T10:47:13;98880.53;;;19.26;76.78
48874;BME280;35220;46.204;5.220;2022-08-19T10:52:14;98881.91;;;19.24;77.05
48874;BME280;35220;46.204;5.220;2022-08-19T10:57:33;98881.03;;;19.28;76.66
48874;BME280;35220;46.204;5.220;2022-08-19T11:02:34;98873.69;;;19.48;76.10
48874;BME280;35220;46.204;5.220;2022-08-19T11:07:34;98884.50;;;19.60;75.62
48874;BME280;35220;46.204;5.220;2022-08-19T11:12:37;98885.34;;;19.69;75.26
48874;BME280;35220;46.204;5.220;2022-08-19T11:17:39;98874.34;;;19.99;74.38
48874;BME280;35220;46.204;5.220;2022-08-19T11:22:43;98877.75;;;20.39;73.64
48874;BME280;35220;46.204;5.220;2022-08-19T11:27:44;98869.03;;;20.87;72.71
48874;BME280;35220;46.204;5.220;2022-08-19T11:32:44;98877.63;;;21.11;71.91
48874;BME280;35220;46.204;5.220;2022-08-19T11:37:45;98876.22;;;21.31;71.04
48874;BME280;35220;46.204;5.220;2022-08-19T11:42:45;98878.22;;;21.60;69.99
48874;BME280;35220;46.204;5.220;2022-08-19T11:47:55;98877.50;;;22.07;69.22
48874;BME280;35220;46.204;5.220;2022-08-19T11:52:56;98881.94;;;22.32;68.57
48874;BME280;35220;46.204;5.220;2022-08-19T11:57:57;98890.91;;;22.49;68.67
48874;BME280;35220;46.204;5.220;2022-08-19T12:02:58;98876.13;;;22.90;67.07
48874;BME280;35220;46.204;5.220;2022-08-19T12:07:58;98881.56;;;23.23;66.44
48874;BME280;35220;46.204;5.220;2022-08-19T12:12:58;98879.72;;;23.36;66.27
48874;BME280;35220;46.204;5.220;2022-08-19T12:17:59;98868.50;;;23.64;65.64
48874;BME280;35220;46.204;5.220;2022-08-19T12:22:59;98867.38;;;23.98;64.58
48874;BME280;35220;46.204;5.220;2022-08-19T12:28:00;98864.94;;;24.05;63.86
48874;BME280;35220;46.204;5.220;2022-08-19T12:33:01;98857.97;;;24.38;62.79
48874;BME280;35220;46.204;5.220;2022-08-19T12:38:01;98857.44;;;24.97;62.08
48874;BME280;35220;46.204;5.220;2022-08-19T12:43:03;98853.84;;;25.46;61.13
48874;BME280;35220;46.204;5.220;2022-08-19T12:48:04;98843.53;;;25.60;60.40
48874;BME280;35220;46.204;5.220;2022-08-19T12:53:04;98848.19;;;26.27;59.18
48874;BME280;35220;46.204;5.220;2022-08-19T12:58:05;98846.16;;;26.05;59.94
48874;BME280;35220;46.204;5.220;2022-08-19T13:03:05;98850.19;;;25.98;60.15
48874;BME280;35220;46.204;5.220;2022-08-19T13:08:06;98841.09;;;26.51;59.01
48874;BME280;35220;46.204;5.220;2022-08-19T13:13:08;98836.78;;;28.36;54.09
48874;BME280;35220;46.204;5.220;2022-08-19T13:18:10;98834.81;;;30.87;49.82
48874;BME280;35220;46.204;5.220;2022-08-19T13:23:11;98834.97;;;32.31;46.93
48874;BME280;35220;46.204;5.220;2022-08-19T13:28:11;98822.28;;;33.20;45.01
48874;BME280;35220;46.204;5.220;2022-08-19T13:33:12;98818.72;;;34.58;42.53
48874;BME280;35220;46.204;5.220;2022-08-19T13:38:18;98816.34;;;34.64;41.17
48874;BME280;35220;46.204;5.220;2022-08-19T13:43:21;98807.94;;;35.16;41.21
48874;BME280;35220;46.204;5.220;2022-08-19T13:48:24;98800.56;;;35.91;39.14
48874;BME280;35220;46.204;5.220;2022-08-19T13:53:26;98795.16;;;36.51;37.52
48874;BME280;35220;46.204;5.220;2022-08-19T13:58:26;98800.75;;;37.17;36.49
48874;BME280;35220;46.204;5.220;2022-08-19T14:03:27;98788.16;;;37.73;34.62
48874;BME280;35220;46.204;5.220;2022-08-19T14:08:28;98790.69;;;37.80;33.90
48874;BME280;35220;46.204;5.220;2022-08-19T14:13:29;98788.38;;;35.32;35.74
48874;BME280;35220;46.204;5.220;2022-08-19T14:18:29;98798.63;;;32.75;38.06
48874;BME280;35220;46.204;5.220;2022-08-19T14:23:31;98792.28;;;31.36;39.55
48874;BME280;35220;46.204;5.220;2022-08-19T14:28:31;98802.22;;;30.19;40.39
48874;BME280;35220;46.204;5.220;2022-08-19T14:33:32;98797.75;;;28.99;42.22
48874;BME280;35220;46.204;5.220;2022-08-19T14:38:32;98793.91;;;28.36;42.84
48874;BME280;35220;46.204;5.220;2022-08-19T14:43:34;98793.94;;;27.86;43.40
48874;BME280;35220;46.204;5.220;2022-08-19T14:48:34;98793.53;;;27.38;44.10
48874;BME280;35220;46.204;5.220;2022-08-19T14:53:37;98798.53;;;26.78;45.48
48874;BME280;35220;46.204;5.220;2022-08-19T14:58:39;98803.91;;;26.26;47.26
48874;BME280;35220;46.204;5.220;2022-08-19T15:03:42;98808.16;;;25.64;48.53
48874;BME280;35220;46.204;5.220;2022-08-19T15:08:43;98823.84;;;25.37;48.71
48874;BME280;35220;46.204;5.220;2022-08-19T15:13:44;98820.16;;;25.13;50.09
48874;BME280;35220;46.204;5.220;2022-08-19T15:18:50;98800.66;;;25.09;51.21
48874;BME280;35220;46.204;5.220;2022-08-19T15:23:51;98803.41;;;25.13;50.70
48874;BME280;35220;46.204;5.220;2022-08-19T15:28:52;98802.00;;;25.31;49.93
48874;BME280;35220;46.204;5.220;2022-08-19T15:33:53;98795.50;;;26.08;48.06
48874;BME280;35220;46.204;5.220;2022-08-19T15:38:56;98791.56;;;26.37;47.48
48874;BME280;35220;46.204;5.220;2022-08-19T15:44:03;98790.47;;;27.17;46.08
48874;BME280;35220;46.204;5.220;2022-08-19T15:49:04;98792.31;;;28.05;44.62
48874;BME280;35220;46.204;5.220;2022-08-19T15:54:07;98788.88;;;28.61;43.75
48874;BME280;35220;46.204;5.220;2022-08-19T15:59:08;98779.59;;;28.86;44.50
48874;BME280;35220;46.204;5.220;2022-08-19T16:04:27;98786.66;;;29.05;44.34
48874;BME280;35220;46.204;5.220;2022-08-19T16:09:46;98778.66;;;29.46;44.07
48874;BME280;35220;46.204;5.220;2022-08-19T16:14:46;98788.75;;;30.11;43.07
48874;BME280;35220;46.204;5.220;2022-08-19T16:19:48;98784.44;;;30.77;41.99
48874;BME280;35220;46.204;5.220;2022-08-19T16:24:49;98786.16;;;31.82;39.54
48874;BME280;35220;46.204;5.220;2022-08-19T16:29:49;98790.00;;;31.63;39.37
48874;BME280;35220;46.204;5.220;2022-08-19T16:34:49;98774.97;;;32.05;38.36
48874;BME280;35220;46.204;5.220;2022-08-19T16:39:50;98784.19;;;31.90;37.40
48874;BME280;35220;46.204;5.220;2022-08-19T16:44:50;98777.16;;;32.39;36.97
48874;BME280;35220;46.204;5.220;2022-08-19T16:49:51;98805.59;;;32.62;36.82
48874;BME280;35220;46.204;5.220;2022-08-19T16:54:52;98789.78;;;32.67;36.41
48874;BME280;35220;46.204;5.220;2022-08-19T16:59:53;98795.28;;;33.20;35.58
48874;BME280;35220;46.204;5.220;2022-08-19T17:04:53;98787.91;;;32.61;35.42
48874;BME280;35220;46.204;5.220;2022-08-19T17:09:55;98781.81;;;33.16;34.75
48874;BME280;35220;46.204;5.220;2022-08-19T17:14:56;98777.78;;;32.75;34.93
48874;BME280;35220;46.204;5.220;2022-08-19T17:19:58;98783.38;;;33.10;34.50
48874;BME280;35220;46.204;5.220;2022-08-19T17:24:59;98790.69;;;33.69;33.73
48874;BME280;35220;46.204;5.220;2022-08-19T17:30:01;98784.91;;;33.11;34.25
48874;BME280;35220;46.204;5.220;2022-08-19T17:35:04;98788.25;;;33.33;34.04
48874;BME280;35220;46.204;5.220;2022-08-19T17:40:07;98796.81;;;32.39;34.79
48874;BME280;35220;46.204;5.220;2022-08-19T17:45:08;98783.69;;;32.42;35.29
48874;BME280;35220;46.204;5.220;2022-08-19T17:50:11;98801.09;;;31.25;36.74
48874;BME280;35220;46.204;5.220;2022-08-19T17:55:12;98802.41;;;29.44;39.30
48874;BME280;35220;46.204;5.220;2022-08-19T18:00:13;98804.28;;;27.88;42.05
48874;BME280;35220;46.204;5.220;2022-08-19T18:05:14;98811.56;;;27.22;43.10
48874;BME280;35220;46.204;5.220;2022-08-19T18:10:14;98819.44;;;26.56;44.69
48874;BME280;35220;46.204;5.220;2022-08-19T18:15:15;98822.59;;;26.26;45.04
48874;BME280;35220;46.204;5.220;2022-08-19T18:20:17;98832.56;;;25.94;45.89
48874;BME280;35220;46.204;5.220;2022-08-19T18:25:23;98831.94;;;25.40;48.82
48874;BME280;35220;46.204;5.220;2022-08-19T18:30:26;98834.53;;;25.09;48.64
48874;BME280;35220;46.204;5.220;2022-08-19T18:35:29;98840.91;;;24.92;49.10
48874;BME280;35220;46.204;5.220;2022-08-19T18:40:30;98851.84;;;24.74;48.96
48874;BME280;35220;46.204;5.220;2022-08-19T18:45:49;98857.09;;;24.58;49.58
48874;BME280;35220;46.204;5.220;2022-08-19T18:51:10;98860.09;;;24.32;51.17
48874;BME280;35220;46.204;5.220;2022-08-19T18:56:12;98865.75;;;24.06;52.55
48874;BME280;35220;46.204;5.220;2022-08-19T19:01:16;98872.97;;;23.72;55.85
48874;BME280;35220;46.204;5.220;2022-08-19T19:06:20;98872.78;;;23.44;56.39
48874;BME280;35220;46.204;5.220;2022-08-19T19:11:24;98881.28;;;23.16;56.96
48874;BME280;35220;46.204;5.220;2022-08-19T19:16:25;98879.50;;;23.08;57.08
48874;BME280;35220;46.204;5.220;2022-08-19T19:21:26;98894.75;;;22.90;58.49
48874;BME280;35220;46.204;5.220;2022-08-19T19:26:27;98895.59;;;22.82;58.41
48874;BME280;35220;46.204;5.220;2022-08-19T19:31:27;98907.66;;;22.70;59.56
48874;BME280;35220;46.204;5.220;2022-08-19T19:36:28;98917.78;;;22.77;58.32
48874;BME280;35220;46.204;5.220;2022-08-19T19:41:28;98918.81;;;22.64;59.38
48874;BME280;35220;46.204;5.220;2022-08-19T19:46:30;98925.84;;;22.59;59.42
48874;BME280;35220;46.204;5.220;2022-08-19T19:51:31;98927.63;;;22.47;59.61
48874;BME280;35220;46.204;5.220;2022-08-19T19:56:33;98941.41;;;22.40;60.09
48874;BME280;35220;46.204;5.220;2022-08-19T20:01:33;98939.72;;;22.35;60.05
48874;BME280;35220;46.204;5.220;2022-08-19T20:06:34;98939.72;;;22.35;59.65
48874;BME280;35220;46.204;5.220;2022-08-19T20:11:47;98942.38;;;22.35;60.50
48874;BME280;35220;46.204;5.220;2022-08-19T20:16:49;98942.50;;;22.39;59.50
48874;BME280;35220;46.204;5.220;2022-08-19T20:21:49;98937.94;;;22.48;58.77
48874;BME280;35220;46.204;5.220;2022-08-19T20:26:50;98949.16;;;22.54;58.99
48874;BME280;35220;46.204;5.220;2022-08-19T20:31:51;98946.22;;;22.47;59.53
48874;BME280;35220;46.204;5.220;2022-08-19T20:36:52;98950.63;;;22.43;59.89
48874;BME280;35220;46.204;5.220;2022-08-19T20:41:53;98951.66;;;22.50;59.86
48874;BME280;35220;46.204;5.220;2022-08-19T20:46:55;98956.03;;;22.55;59.13
48874;BME280;35220;46.204;5.220;2022-08-19T20:51:56;98968.06;;;22.52;59.24
48874;BME280;35220;46.204;5.220;2022-08-19T20:56:57;98966.84;;;22.50;59.61
48874;BME280;35220;46.204;5.220;2022-08-19T21:01:57;98955.72;;;22.56;59.44
48874;BME280;35220;46.204;5.220;2022-08-19T21:06:58;98951.94;;;22.57;59.29
48874;BME280;35220;46.204;5.220;2022-08-19T21:12:02;98947.63;;;22.53;59.38
48874;BME280;35220;46.204;5.220;2022-08-19T21:17:03;98941.06;;;22.50;59.70
48874;BME280;35220;46.204;5.220;2022-08-19T21:22:04;98944.81;;;22.49;59.48
48874;BME280;35220;46.204;5.220;2022-08-19T21:27:05;98943.19;;;22.66;58.99
48874;BME280;35220;46.204;5.220;2022-08-19T21:32:06;98938.19;;;22.64;59.32
48874;BME280;35220;46.204;5.220;2022-08-19T21:37:06;98936.81;;;22.58;59.49
48874;BME280;35220;46.204;5.220;2022-08-19T21:42:07;98943.44;;;22.73;59.05
48874;BME280;35220;46.204;5.220;2022-08-19T21:47:07;98942.63;;;22.81;58.84
48874;BME280;35220;46.204;5.220;2022-08-19T21:52:08;98945.88;;;22.87;59.08
48874;BME280;35220;46.204;5.220;2022-08-19T21:57:08;98949.00;;;22.89;58.84
48874;BME280;35220;46.204;5.220;2022-08-19T22:02:08;98954.56;;;22.96;58.72
48874;BME280;35220;46.204;5.220;2022-08-19T22:07:10;98958.78;;;22.97;58.99
48874;BME280;35220;46.204;5.220;2022-08-19T22:12:30;98968.00;;;23.00;59.92
48874;BME280;35220;46.204;5.220;2022-08-19T22:17:31;98965.03;;;23.01;59.25
48874;BME280;35220;46.204;5.220;2022-08-19T22:22:32;98965.03;;;23.01;59.32
48874;BME280;35220;46.204;5.220;2022-08-19T22:27:34;98954.06;;;23.03;59.29
48874;BME280;35220;46.204;5.220;2022-08-19T22:32:35;98954.06;;;23.03;59.57
48874;BME280;35220;46.204;5.220;2022-08-19T22:37:35;98955.78;;;22.98;59.62
48874;BME280;35220;46.204;5.220;2022-08-19T22:42:36;98958.13;;;23.00;59.89
48874;BME280;35220;46.204;5.220;2022-08-19T22:47:37;98955.78;;;22.98;59.51
48874;BME280;35220;46.204;5.220;2022-08-19T22:52:38;98952.81;;;23.00;59.51
48874;BME280;35220;46.204;5.220;2022-08-19T22:57:41;98958.59;;;23.02;59.56
48874;BME280;35220;46.204;5.220;2022-08-19T23:02:42;98949.06;;;23.01;59.61
48874;BME280;35220;46.204;5.220;2022-08-19T23:07:43;98954.84;;;23.03;59.54
48874;BME280;35220;46.204;5.220;2022-08-19T23:12:47;98959.38;;;23.03;59.71
48874;BME280;35220;46.204;5.220;2022-08-19T23:17:47;98947.50;;;23.00;59.70
48874;BME280;35220;46.204;5.220;2022-08-19T23:22:48;98941.88;;;23.02;59.69
48874;BME280;35220;46.204;5.220;2022-08-19T23:27:50;98936.09;;;23.00;59.64
48874;BME280;35220;46.204;5.220;2022-08-19T23:33:33;98933.44;;;23.00;60.02
48874;BME280;35220;46.204;5.220;2022-08-19T23:38:34;98936.75;;;22.96;59.84
48874;BME280;35220;46.204;5.220;2022-08-19T23:43:35;98948.00;;;22.93;59.79
48874;BME280;35220;46.204;5.220;2022-08-19T23:48:38;98937.59;;;22.88;60.31
48874;BME280;35220;46.204;5.220;2022-08-19T23:53:40;98935.84;;;22.92;60.07
48874;BME280;35220;46.204;5.220;2022-08-19T23:58:41;98927.88;;;22.92;59.91
